Bremgarten, Germany

6:35 PM CEST on July 23, 2016 (GMT +0200)
Fire Department | | Change Station

Elev 741 ft 47.92 °N, 7.70 °E | Updated 8 seconds ago

Mostly Cloudy
Mostly Cloudy
77.2 °F
Feels Like 79 °F
N
2.7
Wind Variable Wind from SE
Gusts 6.2 mph

Today
High -- | Low -- °F
--% Chance of Precip.
Yesterday
High -- | Low -- °F
Precip. -- in
Pressure 30.04 in
Visibility 6.2 miles
Clouds Scattered Clouds 3300 ft
Few 4000 ft
Mostly Cloudy 12000 ft
Mostly Cloudy 26000 ft
Heat Index 79 °F
Dew Point 67 °F
Humidity 70%
Rainfall 0.00 in
Snow Depth Not available.
5:55 AM 9:16 PM
Waning Gibbous, 84% visible
METAR LFSB 231630Z 03004KT 340V080 9999 SCT033 FEW040TCU BKN120 BKN260 24/18 Q1017 NOSIG
Pressure 30.04 in
Visibility 6.2 miles
Clouds Scattered Clouds 3300 ft
Few 4000 ft
Mostly Cloudy 12000 ft
Mostly Cloudy 26000 ft
Heat Index 79 °F
Dew Point 67 °F
Humidity 70%
Rainfall 0.00 in
Snow Depth Not available.
5:55 AM 9:16 PM
Waning Gibbous, 84% visible
METAR LFSB 231630Z 03004KT 340V080 9999 SCT033 FEW040TCU BKN120 BKN260 24/18 Q1017 NOSIG

10-Day Weather Forecast

×

Almanac

Astronomy

Jul. 23, 2016 Rise Set
Actual Time
Civil Twilight
Nautical Twilight
Astronomical Twilight
Moon
Length of Visible Light
Length of Day
Tomorrow will be .
, % of the Moon is Illuminated

Today's Extremes

Country Highs Country Lows

Community

WunderPhotos

Upload Photos

1,926,860 photos uploaded!

WunderBlog® & News

Nearby

Air Quality

  Air Quality AQ Index Pollutant
Not available.

Snow Depth

Station Depth Elevation

Earthquake Activity

City Distance Mag. Time & Date
Minimum magnitude displayed is 2.5.

Coastal Water Temperatures

Place Temperature

Stations

Nearby Weather Stations

Station Location Temp. Windchill Dew Point Humidity Wind Precip. Elev Updated Type